createdAt,value
2022-11-16T00:00:31.946Z,102457.31
2022-11-16T00:01:34.247Z,102452.13
2022-11-16T00:02:36.046Z,102462.44
2022-11-16T00:03:38.053Z,102444.09
2022-11-16T00:04:39.827Z,102459.84
2022-11-16T00:05:41.533Z,102459.03
2022-11-16T00:06:43.334Z,102446.78
2022-11-16T00:07:45.463Z,102458.16
2022-11-16T00:09:09.818Z,102446.78
2022-11-16T00:10:12.361Z,102459.53
2022-11-16T00:11:16.346Z,102456.09
2022-11-16T00:12:18.114Z,102448.28
2022-11-16T00:13:19.906Z,102431.28
2022-11-16T00:14:23.187Z,102451.06
2022-11-16T00:15:24.925Z,102450.97
2022-11-16T00:16:27.439Z,102452.91
2022-11-16T00:17:29.148Z,102455.59
2022-11-16T00:18:31.334Z,102455.59
2022-11-16T00:19:33.313Z,102444.22
2022-11-16T00:20:34.966Z,102447.75
2022-11-16T00:21:36.790Z,102444.09
2022-11-16T00:22:38.509Z,102445.31
2022-11-16T00:23:40.409Z,102435.66
2022-11-16T00:24:42.153Z,102443.34
2022-11-16T00:25:44.154Z,102433.84
2022-11-16T00:26:47.030Z,102438.84
2022-11-16T00:27:48.738Z,102425.19
2022-11-16T00:28:52.962Z,102436.28
2022-11-16T00:29:54.633Z,102434.34
2022-11-16T00:31:04.314Z,102432.00
2022-11-16T00:32:06.082Z,102441.41
2022-11-16T00:33:08.485Z,102440.66
2022-11-16T00:34:10.896Z,102428.47
2022-11-16T00:35:12.630Z,102436.28
2022-11-16T00:36:15.270Z,102439.09
2022-11-16T00:37:16.947Z,102436.41
2022-11-16T00:39:21.229Z,102419.41
2022-11-16T00:40:23.088Z,102428.47
2022-11-16T00:41:24.808Z,102426.25
2022-11-16T00:42:26.493Z,102431.63
2022-11-16T00:43:28.464Z,102433.09
2022-11-16T00:44:30.370Z,102437.38
2022-11-16T00:45:32.165Z,102431.16
2022-11-16T00:46:34.224Z,102441.88
2022-11-16T00:47:36.910Z,102424.53
2022-11-16T00:48:38.589Z,102430.53
2022-11-16T00:49:40.294Z,102442.84
2022-11-16T00:50:42.004Z,102442.34
2022-11-16T00:51:43.940Z,102436.75
2022-11-16T00:52:46.326Z,102445.53
2022-11-16T00:53:48.098Z,102436.00
2022-11-16T00:54:50.320Z,102436.75
2022-11-16T00:55:52.498Z,102437.63
2022-11-16T00:56:55.737Z,102443.81
2022-11-16T00:57:58.230Z,102424.16
2022-11-16T00:59:00.345Z,102444.78
2022-11-16T01:00:04.280Z,102447.47
2022-11-16T01:01:11.466Z,102435.50
2022-11-16T01:02:13.342Z,102443.22
2022-11-16T01:03:16.295Z,102440.63
2022-11-16T01:04:18.011Z,102441.28
2022-11-16T01:05:19.909Z,102431.97
2022-11-16T01:06:23.472Z,102444.06
2022-11-16T01:07:25.291Z,102446.75
2022-11-16T01:08:27.037Z,102448.59
2022-11-16T01:09:28.747Z,102446.00
2022-11-16T01:10:30.831Z,102450.41
2022-11-16T01:11:51.457Z,102455.75
2022-11-16T01:12:53.544Z,102447.47
2022-11-16T01:13:55.637Z,102434.66
2022-11-16T01:14:57.389Z,102445.78
2022-11-16T01:15:59.064Z,102453.09
2022-11-16T01:17:00.745Z,102455.91
2022-11-16T01:18:02.550Z,102451.38
2022-11-16T01:19:05.121Z,102435.00
2022-11-16T01:20:10.946Z,102449.66
2022-11-16T01:21:12.749Z,102428.25
2022-11-16T01:22:14.619Z,102457.69
2022-11-16T01:23:16.349Z,102443.03
2022-11-16T01:24:18.022Z,102461.50
2022-11-16T01:25:20.501Z,102455.25
2022-11-16T01:26:22.257Z,102454.19
2022-11-16T01:27:24.314Z,102448.91
2022-11-16T01:28:28.462Z,102441.00
2022-11-16T01:29:31.629Z,102442.72
2022-11-16T01:30:35.364Z,102447.09
2022-11-16T01:31:41.895Z,102434.03
2022-11-16T01:32:44.056Z,102441.75
2022-11-16T01:33:46.208Z,102437.22
2022-11-16T01:34:56.254Z,102436.47
2022-11-16T01:36:14.591Z,102447.72
2022-11-16T01:37:17.791Z,102436.47
2022-11-16T01:38:19.886Z,102432.22
2022-11-16T01:39:21.745Z,102429.72
2022-11-16T01:40:28.406Z,102428.25
2022-11-16T01:41:30.300Z,102436.63
2022-11-16T01:42:34.771Z,102440.03
2022-11-16T01:44:01.093Z,102436.97
2022-11-16T01:45:37.553Z,102438.47
2022-11-16T01:46:42.387Z,102431.16
2022-11-16T01:47:47.251Z,102423.28
2022-11-16T01:49:11.984Z,102421.13
2022-11-16T01:50:17.370Z,102420.38
2022-11-16T01:51:22.052Z,102430.78
2022-11-16T01:52:29.808Z,102430.13
2022-11-16T01:53:31.811Z,102424.16
2022-11-16T01:54:40.405Z,102435.75
2022-11-16T01:55:44.897Z,102425.00
2022-11-16T01:56:57.081Z,102435.63
2022-11-16T01:58:19.382Z,102442.47
2022-11-16T01:59:24.806Z,102415.09
2022-11-16T02:00:27.876Z,102440.03
2022-11-16T02:01:43.542Z,102438.19
2022-11-16T02:02:45.414Z,102445.50
2022-11-16T02:03:58.533Z,102444.53
2022-11-16T02:05:01.913Z,102446.47
2022-11-16T02:06:22.703Z,102442.81
2022-11-16T02:08:10.964Z,102453.31
2022-11-16T02:09:55.240Z,102455.44
2022-11-16T02:11:37.594Z,102444.22
2022-11-16T02:13:05.178Z,102439.19
2022-11-16T02:14:33.041Z,102445.31
2022-11-16T02:16:06.004Z,102437.50
2022-11-16T02:17:28.011Z,102442.00
2022-11-16T02:18:44.754Z,102428.09
2022-11-16T02:20:17.425Z,102432.50
2022-11-16T02:21:54.210Z,102433.97
2022-11-16T02:23:10.805Z,102423.56
2022-11-16T02:24:49.018Z,102424.06
2022-11-16T02:26:14.833Z,102424.31
2022-11-16T02:27:25.534Z,102424.78
2022-11-16T02:28:45.989Z,102426.63
2022-11-16T02:29:53.530Z,102425.97
2022-11-16T02:30:59.951Z,102410.81
2022-11-16T02:32:22.872Z,102428.16
2022-11-16T02:33:33.983Z,102432.41
2022-11-16T02:34:44.954Z,102422.66
2022-11-16T02:35:57.066Z,102428.03
2022-11-16T02:37:01.575Z,102424.59
2022-11-16T02:38:10.470Z,102411.78
2022-11-16T02:39:16.960Z,102414.56
2022-11-16T02:40:23.616Z,102429.38
2022-11-16T02:41:28.609Z,102424.84
2022-11-16T02:43:12.169Z,102419.66
2022-11-16T02:44:22.201Z,102406.81
2022-11-16T02:45:27.969Z,102421.81
2022-11-16T02:46:38.261Z,102414.75
2022-11-16T02:47:44.646Z,102413.03
2022-11-16T02:48:51.034Z,102419.47
2022-11-16T02:49:59.021Z,102423.03
2022-11-16T02:51:02.654Z,102415.22
2022-11-16T02:52:06.146Z,102416.06
2022-11-16T02:53:07.853Z,102412.03
2022-11-16T02:54:13.059Z,102417.91
2022-11-16T02:55:17.832Z,102416.91
2022-11-16T02:56:20.374Z,102418.88
2022-11-16T02:57:33.096Z,102412.75
2022-11-16T02:58:35.109Z,102415.94
2022-11-16T02:59:44.408Z,102421.41
2022-11-16T03:00:55.459Z,102399.59
2022-11-16T03:02:03.831Z,102411.44
2022-11-16T03:03:18.806Z,102414.97
2022-11-16T03:04:28.284Z,102408.13
2022-11-16T03:05:55.564Z,102413.13
2022-11-16T03:07:03.857Z,102413.78
2022-11-16T03:08:23.207Z,102415.72
2022-11-16T03:09:30.872Z,102420.13
2022-11-16T03:10:55.710Z,102414.97
2022-11-16T03:12:01.060Z,102406.19
2022-11-16T03:13:10.814Z,102418.50
2022-11-16T03:14:18.832Z,102413.28
2022-11-16T03:15:20.776Z,102410.81
2022-11-16T03:16:27.751Z,102408.59
2022-11-16T03:17:40.082Z,102408.25
2022-11-16T03:18:44.527Z,102404.59
2022-11-16T03:19:57.629Z,102408.13
2022-11-16T03:21:26.836Z,102411.56
2022-11-16T03:22:35.366Z,102409.63
2022-11-16T03:23:38.046Z,102409.63
2022-11-16T03:24:40.500Z,102389.25
2022-11-16T03:25:50.147Z,102405.56
2022-11-16T03:27:00.989Z,102414.34
2022-11-16T03:28:23.184Z,102410.59
2022-11-16T03:29:41.073Z,102408.66
2022-11-16T03:30:52.733Z,102388.63
2022-11-16T03:32:01.626Z,102397.41
2022-11-16T03:33:14.567Z,102394.00
2022-11-16T03:34:20.573Z,102392.28
2022-11-16T03:35:41.076Z,102397.41
2022-11-16T03:36:47.263Z,102399.13
2022-11-16T03:37:51.041Z,102395.69
2022-11-16T03:38:54.083Z,102403.84
2022-11-16T03:40:01.128Z,102397.75
2022-11-16T03:41:08.574Z,102392.28
2022-11-16T03:42:14.119Z,102397.88
2022-11-16T03:43:20.245Z,102390.88
2022-11-16T03:44:22.830Z,102402.28
2022-11-16T03:45:24.937Z,102397.88
2022-11-16T03:46:29.108Z,102390.81
2022-11-16T03:47:31.341Z,102388.66
2022-11-16T03:48:38.607Z,102403.34
2022-11-16T03:49:47.721Z,102399.59
2022-11-16T03:50:52.738Z,102400.44
2022-11-16T03:51:55.231Z,102398.72
2022-11-16T03:52:57.730Z,102399.88
2022-11-16T03:53:59.513Z,102395.59
2022-11-16T03:56:03.549Z,102403.44
2022-11-16T03:57:05.233Z,102408.81
2022-11-16T03:58:07.529Z,102407.94
2022-11-16T03:59:09.296Z,102405.16
2022-11-16T04:00:12.745Z,102403.44
2022-11-16T04:01:18.314Z,102404.28
2022-11-16T04:02:22.116Z,102406.03
2022-11-16T04:03:26.141Z,102394.63
2022-11-16T04:04:46.398Z,102394.63
2022-11-16T04:06:07.521Z,102404.94
2022-11-16T04:07:28.730Z,102388.84
2022-11-16T04:08:49.134Z,102393.13
2022-11-16T04:10:08.946Z,102396.78
2022-11-16T04:11:35.387Z,102408.97
2022-11-16T04:12:59.074Z,102407.91
2022-11-16T04:14:19.287Z,102402.63
2022-11-16T04:15:39.456Z,102407.16
2022-11-16T04:16:59.707Z,102408.13
2022-11-16T04:18:20.231Z,102402.78
2022-11-16T04:19:40.554Z,102413.50
2022-11-16T04:21:02.274Z,102410.91
2022-11-16T04:22:34.459Z,102417.16
2022-11-16T04:23:54.902Z,102410.81
2022-11-16T04:25:05.014Z,102407.63
2022-11-16T04:26:09.606Z,102398.84
2022-11-16T04:27:32.487Z,102398.50
2022-11-16T04:28:35.918Z,102406.03
2022-11-16T04:29:40.427Z,102408.69
2022-11-16T04:31:07.677Z,102407.06
2022-11-16T04:32:29.634Z,102403.25
2022-11-16T04:33:51.595Z,102402.13
2022-11-16T04:35:12.547Z,102388.28
2022-11-16T04:36:33.000Z,102400.44
2022-11-16T04:37:49.806Z,102398.63
2022-11-16T04:38:56.629Z,102402.13
2022-11-16T04:39:58.738Z,102404.28
2022-11-16T04:41:00.452Z,102400.94
2022-11-16T04:42:19.729Z,102395.72
2022-11-16T04:43:24.220Z,102401.59
2022-11-16T04:44:45.949Z,102396.47
2022-11-16T04:46:06.280Z,102389.63
2022-11-16T04:47:13.700Z,102390.81
2022-11-16T04:48:17.105Z,102388.28
2022-11-16T04:49:19.492Z,102391.09
2022-11-16T04:50:21.909Z,102385.84
2022-11-16T04:51:24.976Z,102385.00
2022-11-16T04:52:27.286Z,102373.88
2022-11-16T04:53:30.652Z,102374.84
2022-11-16T04:54:46.887Z,102390.97
2022-11-16T04:55:51.135Z,102383.38
2022-11-16T04:56:55.061Z,102386.72
2022-11-16T04:57:57.694Z,102382.41
2022-11-16T04:59:01.192Z,102374.50
2022-11-16T05:00:05.823Z,102387.78
2022-11-16T05:01:09.877Z,102362.53
2022-11-16T05:02:11.854Z,102371.94
2022-11-16T05:03:20.317Z,102379.63
2022-11-16T05:04:22.224Z,102362.88
2022-11-16T05:05:24.055Z,102376.22
2022-11-16T05:06:27.521Z,102370.72
2022-11-16T05:07:30.492Z,102371.69
2022-11-16T05:08:40.708Z,102347.53
2022-11-16T05:09:44.681Z,102365.50
2022-11-16T05:10:51.149Z,102355.84
2022-11-16T05:11:53.693Z,102359.16
2022-11-16T05:12:55.818Z,102355.84
2022-11-16T05:13:58.558Z,102351.59
2022-11-16T05:15:00.870Z,102348.03
2022-11-16T05:16:05.925Z,102353.91
2022-11-16T05:17:08.038Z,102348.53
2022-11-16T05:18:09.933Z,102351.34
2022-11-16T05:19:30.169Z,102353.91
2022-11-16T05:20:53.408Z,102343.91
2022-11-16T05:21:55.331Z,102357.84
2022-11-16T05:22:58.276Z,102350.00
2022-11-16T05:24:23.715Z,102339.00
2022-11-16T05:25:26.602Z,102347.22
2022-11-16T05:26:28.551Z,102344.16
2022-11-16T05:27:30.786Z,102355.59
2022-11-16T05:28:33.252Z,102334.25
2022-11-16T05:29:36.141Z,102350.47
2022-11-16T05:30:39.017Z,102357.69
2022-11-16T05:31:40.874Z,102362.06
2022-11-16T05:32:43.810Z,102369.25
2022-11-16T05:33:46.575Z,102365.09
2022-11-16T05:34:49.802Z,102363.16
2022-11-16T05:35:52.384Z,102363.38
2022-11-16T05:36:55.875Z,102368.75
2022-11-16T05:37:57.686Z,102379.22
2022-11-16T05:38:59.982Z,102378.25
2022-11-16T05:40:05.783Z,102389.13
2022-11-16T05:41:33.641Z,102379.50
2022-11-16T05:42:35.448Z,102370.44
2022-11-16T05:43:37.526Z,102382.66
2022-11-16T05:44:57.685Z,102385.97
2022-11-16T05:45:59.382Z,102382.66
2022-11-16T05:47:01.486Z,102377.28
2022-11-16T05:48:03.578Z,102374.84
2022-11-16T05:49:08.942Z,102379.47
2022-11-16T05:50:11.315Z,102368.97
2022-11-16T05:51:16.077Z,102375.81
2022-11-16T05:52:18.081Z,102374.34
2022-11-16T05:53:20.794Z,102382.88
2022-11-16T05:54:25.937Z,102391.91
2022-11-16T05:55:28.478Z,102377.00
2022-11-16T05:56:32.663Z,102378.63
2022-11-16T05:57:34.363Z,102381.41
2022-11-16T05:58:37.030Z,102380.44
2022-11-16T05:59:39.982Z,102378.50
2022-11-16T06:00:42.290Z,102366.63
2022-11-16T06:01:46.577Z,102370.59
2022-11-16T06:02:48.469Z,102375.81
2022-11-16T06:04:00.454Z,102371.31
2022-11-16T06:05:02.279Z,102357.50
2022-11-16T06:06:05.141Z,102355.81
2022-11-16T06:07:06.908Z,102359.97
2022-11-16T06:08:10.609Z,102364.13
2022-11-16T06:09:12.662Z,102350.44
2022-11-16T06:10:14.406Z,102363.16
2022-11-16T06:11:18.551Z,102360.47
2022-11-16T06:12:20.561Z,102364.84
2022-11-16T06:13:23.166Z,102350.72
2022-11-16T06:14:29.594Z,102364.28
2022-11-16T06:15:39.556Z,102361.59
2022-11-16T06:16:43.049Z,102366.53
2022-11-16T06:17:46.132Z,102356.53
2022-11-16T06:18:48.431Z,102354.72
2022-11-16T06:19:51.156Z,102351.81
2022-11-16T06:20:52.897Z,102354.25
2022-11-16T06:21:55.688Z,102342.31
2022-11-16T06:22:59.590Z,102324.88
2022-11-16T06:24:08.943Z,102320.38
2022-11-16T06:25:11.213Z,102336.97
2022-11-16T06:26:16.933Z,102323.06
2022-11-16T06:27:18.725Z,102332.84
2022-11-16T06:28:21.165Z,102328.69
2022-11-16T06:29:23.302Z,102335.78
2022-11-16T06:30:27.337Z,102343.72
2022-11-16T06:31:29.819Z,102325.91
2022-11-16T06:32:34.434Z,102339.50
2022-11-16T06:33:36.916Z,102338.63
2022-11-16T06:34:43.297Z,102344.13
2022-11-16T06:35:46.868Z,102351.94
2022-11-16T06:36:53.287Z,102348.03
2022-11-16T06:37:57.258Z,102352.31
2022-11-16T06:39:03.509Z,102350.72
2022-11-16T06:40:10.384Z,102354.38
2022-11-16T06:41:16.060Z,102361.47
2022-11-16T06:42:21.472Z,102372.59
2022-11-16T06:43:24.474Z,102380.56
2022-11-16T06:44:26.286Z,102379.44
2022-11-16T06:45:33.332Z,102377.25
2022-11-16T06:46:36.113Z,102373.59
2022-11-16T06:47:38.795Z,102368.84
2022-11-16T06:48:41.055Z,102361.75
2022-11-16T06:49:47.592Z,102355.41
2022-11-16T06:50:55.128Z,102362.72
2022-11-16T06:51:57.433Z,102359.06
2022-11-16T06:53:03.501Z,102355.41
2022-11-16T06:54:06.320Z,102358.09
2022-11-16T06:55:08.809Z,102359.53
2022-11-16T06:56:14.217Z,102353.69
2022-11-16T06:57:21.386Z,102366.38
2022-11-16T06:58:23.194Z,102368.94
2022-11-16T06:59:24.931Z,102353.44
2022-11-16T07:00:27.882Z,102356.84
2022-11-16T07:01:30.697Z,102362.47
2022-11-16T07:02:39.690Z,102359.78
2022-11-16T07:03:45.750Z,102343.41
2022-11-16T07:04:48.641Z,102362.09
2022-11-16T07:05:50.702Z,102345.88
2022-11-16T07:06:52.974Z,102357.09
2022-11-16T07:07:55.476Z,102362.22
2022-11-16T07:08:58.489Z,102333.91
2022-11-16T07:10:04.908Z,102372.50
2022-11-16T07:11:08.752Z,102370.78
2022-11-16T07:12:10.556Z,102365.63
2022-11-16T07:13:14.591Z,102355.84
2022-11-16T07:14:17.583Z,102369.81
2022-11-16T07:15:19.815Z,102364.69
2022-11-16T07:16:22.975Z,102368.81
2022-11-16T07:17:33.220Z,102354.66
2022-11-16T07:18:37.656Z,102362.47
2022-11-16T07:19:40.242Z,102367.84
2022-11-16T07:20:42.405Z,102367.84
2022-11-16T07:21:44.083Z,102352.34
2022-11-16T07:22:50.680Z,102367.84
2022-11-16T07:23:53.387Z,102368.69
2022-11-16T07:24:56.322Z,102369.56
2022-11-16T07:26:06.317Z,102367.84
2022-11-16T07:27:17.501Z,102367.59
2022-11-16T07:28:22.889Z,102359.06
2022-11-16T07:29:24.806Z,102358.19
2022-11-16T07:30:46.938Z,102354.41
2022-11-16T07:31:55.720Z,102353.44
2022-11-16T07:33:08.124Z,102373.56
2022-11-16T07:34:28.238Z,102344.03
2022-11-16T07:35:40.351Z,102371.75
2022-11-16T07:36:42.154Z,102370.13
2022-11-16T07:37:44.349Z,102346.81
2022-11-16T07:38:47.865Z,102365.41
2022-11-16T07:39:50.825Z,102371.50
2022-11-16T07:40:52.777Z,102375.75
2022-11-16T07:41:57.228Z,102345.28
2022-11-16T07:43:19.276Z,102371.00
2022-11-16T07:44:38.691Z,102383.47
2022-11-16T07:45:44.551Z,102375.03
2022-11-16T07:46:47.956Z,102382.84
2022-11-16T07:47:53.349Z,102379.31
2022-11-16T07:49:19.173Z,102372.72
2022-11-16T07:50:33.497Z,102375.25
2022-11-16T07:51:35.214Z,102373.69
2022-11-16T07:52:51.925Z,102373.69
2022-11-16T07:53:56.074Z,102370.28
2022-11-16T07:54:58.453Z,102361.00
2022-11-16T07:56:03.224Z,102374.06
2022-11-16T07:57:06.537Z,102364.69
2022-11-16T07:58:08.401Z,102375.03
2022-11-16T07:59:10.571Z,102360.25
2022-11-16T08:00:17.018Z,102373.22
2022-11-16T08:01:26.071Z,102366.38
2022-11-16T08:02:27.878Z,102366.97
2022-11-16T08:03:34.541Z,102377.88
2022-11-16T08:04:38.903Z,102366.13
2022-11-16T08:05:41.014Z,102374.19
2022-11-16T08:06:43.288Z,102381.38
2022-11-16T08:07:45.233Z,102368.09
2022-11-16T08:08:47.274Z,102365.63
2022-11-16T08:09:50.125Z,102368.94
2022-11-16T08:10:52.127Z,102369.81
2022-11-16T08:11:54.953Z,102362.22
2022-11-16T08:12:58.297Z,102364.69
2022-11-16T08:14:01.117Z,102364.53
2022-11-16T08:15:03.678Z,102368.09
2022-11-16T08:16:11.697Z,102358.31
2022-11-16T08:17:13.613Z,102349.91
2022-11-16T08:18:15.592Z,102347.78
2022-11-16T08:19:17.281Z,102368.09
2022-11-16T08:20:19.033Z,102368.09
2022-11-16T08:21:22.538Z,102362.72
2022-11-16T08:22:24.725Z,102365.41
2022-11-16T08:23:28.765Z,102365.41
2022-11-16T08:24:30.644Z,102365.41
2022-11-16T08:25:32.413Z,102361.84
2022-11-16T08:26:34.167Z,102360.25
2022-11-16T08:27:41.817Z,102356.72
2022-11-16T08:28:46.803Z,102369.06
2022-11-16T08:29:50.168Z,102361.75
2022-11-16T08:30:54.041Z,102351.59
2022-11-16T08:31:56.770Z,102345.63
2022-11-16T08:32:58.512Z,102363.56
2022-11-16T08:34:01.079Z,102361.00
2022-11-16T08:35:04.104Z,102362.72
2022-11-16T08:36:13.766Z,102362.94
2022-11-16T08:37:15.922Z,102363.56
2022-11-16T08:38:20.194Z,102368.81
2022-11-16T08:39:22.769Z,102360.88
2022-11-16T08:40:24.926Z,102346.97
2022-11-16T08:41:26.650Z,102358.31
2022-11-16T08:42:28.332Z,102348.19
2022-11-16T08:43:31.123Z,102348.19
2022-11-16T08:44:32.852Z,102357.47
2022-11-16T08:45:39.310Z,102362.72
2022-11-16T08:46:41.033Z,102355.13
2022-11-16T08:48:03.097Z,102359.78
2022-11-16T08:49:06.503Z,102350.00
2022-11-16T08:50:08.548Z,102355.63
2022-11-16T08:51:18.105Z,102361.84
2022-11-16T08:52:25.596Z,102357.09
2022-11-16T08:53:28.820Z,102349.75
2022-11-16T08:54:30.985Z,102358.19
2022-11-16T08:55:33.713Z,102358.44
2022-11-16T08:56:35.535Z,102352.19
2022-11-16T08:57:38.212Z,102357.56
2022-11-16T08:58:44.435Z,102362.72
2022-11-16T08:59:47.350Z,102348.53
2022-11-16T09:00:49.266Z,102369.91
2022-11-16T09:01:50.968Z,102356.09
2022-11-16T09:02:52.781Z,102364.69
2022-11-16T09:03:54.884Z,102354.16
2022-11-16T09:04:57.212Z,102360.16
2022-11-16T09:05:59.505Z,102359.31
2022-11-16T09:07:01.282Z,102361.38
2022-11-16T09:08:03.129Z,102362.94
2022-11-16T09:09:05.072Z,102364.69
2022-11-16T09:10:07.749Z,102361.38
2022-11-16T09:11:12.626Z,102344.78
2022-11-16T09:12:14.511Z,102354.16
2022-11-16T09:13:16.234Z,102361.00
2022-11-16T09:14:18.086Z,102344.63
2022-11-16T09:15:20.898Z,102354.88
2022-11-16T09:16:23.522Z,102356.72
2022-11-16T09:17:25.229Z,102340.25
2022-11-16T09:18:27.840Z,102356.63
2022-11-16T09:19:29.541Z,102354.41
2022-11-16T09:20:31.260Z,102359.31
2022-11-16T09:21:33.027Z,102362.84
2022-11-16T09:22:34.985Z,102342.91
2022-11-16T09:23:36.728Z,102359.31
2022-11-16T09:24:38.546Z,102353.94
2022-11-16T09:25:40.207Z,102347.31
2022-11-16T09:26:41.887Z,102359.31
2022-11-16T09:27:43.617Z,102358.44
2022-11-16T09:28:45.337Z,102347.94
2022-11-16T09:29:47.001Z,102347.69
2022-11-16T09:30:51.237Z,102344.38
2022-11-16T09:31:53.112Z,102351.25
2022-11-16T09:32:54.972Z,102349.03
2022-11-16T09:33:58.660Z,102362.94
2022-11-16T09:35:00.744Z,102361.13
2022-11-16T09:36:08.015Z,102364.78
2022-11-16T09:37:09.758Z,102356.34
2022-11-16T09:38:16.029Z,102360.50
2022-11-16T09:39:36.837Z,102354.41
2022-11-16T09:40:41.294Z,102358.19
2022-11-16T09:42:10.239Z,102366.13
2022-11-16T09:43:37.396Z,102369.56
2022-11-16T09:44:47.058Z,102366.47
2022-11-16T09:46:00.446Z,102363.31
2022-11-16T09:47:02.390Z,102354.66
2022-11-16T09:48:12.136Z,102363.69
2022-11-16T09:49:21.281Z,102362.72
2022-11-16T09:50:43.490Z,102363.31
2022-11-16T09:51:48.868Z,102361.00
2022-11-16T09:52:52.829Z,102369.81
2022-11-16T09:54:03.692Z,102355.38
2022-11-16T09:55:24.385Z,102366.25
2022-11-16T09:56:29.009Z,102368.94
2022-11-16T09:57:37.347Z,102353.31
2022-11-16T09:58:48.558Z,102360.41
2022-11-16T09:59:57.794Z,102373.47
2022-11-16T10:01:22.560Z,102366.25
2022-11-16T10:02:31.005Z,102372.25
2022-11-16T10:03:41.275Z,102367.94
2022-11-16T10:04:43.859Z,102370.66
2022-11-16T10:06:08.062Z,102369.19
2022-11-16T10:07:31.844Z,102372.34
2022-11-16T10:08:53.629Z,102371.50
2022-11-16T10:09:56.205Z,102372.50
2022-11-16T10:11:41.617Z,102368.81
2022-11-16T10:13:00.361Z,102380.06
2022-11-16T10:14:29.126Z,102378.34
2022-11-16T10:15:54.537Z,102355.38
2022-11-16T10:17:09.213Z,102370.91
2022-11-16T10:18:30.394Z,102376.63
2022-11-16T10:19:49.910Z,102385.69
2022-11-16T10:20:57.244Z,102389.34
2022-11-16T10:22:34.083Z,102382.84
2022-11-16T10:23:54.589Z,102377.22
2022-11-16T10:25:06.043Z,102369.56
2022-11-16T10:26:34.912Z,102363.19
2022-11-16T10:27:51.446Z,102360.75
2022-11-16T10:29:16.852Z,102371.50
2022-11-16T10:30:21.088Z,102362.09
2022-11-16T10:32:01.109Z,102372.25
2022-11-16T10:33:11.405Z,102366.97
2022-11-16T10:34:22.193Z,102374.19
2022-11-16T10:35:26.917Z,102370.78
2022-11-16T10:36:32.585Z,102357.34
2022-11-16T10:37:39.033Z,102362.34
2022-11-16T10:38:42.284Z,102371.16
2022-11-16T10:39:46.801Z,102376.50
2022-11-16T10:41:01.454Z,102375.66
2022-11-16T10:42:10.278Z,102363.81
2022-11-16T10:43:14.886Z,102341.00
2022-11-16T10:45:12.338Z,102367.59
2022-11-16T10:46:44.693Z,102374.44
2022-11-16T10:48:07.567Z,102368.44
2022-11-16T10:49:21.506Z,102355.63
2022-11-16T10:50:35.090Z,102369.56
2022-11-16T10:51:36.806Z,102360.25
2022-11-16T10:52:38.507Z,102363.69
2022-11-16T10:53:42.517Z,102361.22
2022-11-16T10:54:44.679Z,102353.66
2022-11-16T10:56:00.781Z,102353.91
2022-11-16T10:57:05.950Z,102350.97
2022-11-16T10:58:07.981Z,102371.97
2022-11-16T10:59:19.202Z,102354.66
2022-11-16T11:00:34.021Z,102374.56
2022-11-16T11:01:57.646Z,102377.97
2022-11-16T11:02:59.403Z,102377.72
2022-11-16T11:04:14.570Z,102374.31
2022-11-16T11:05:20.786Z,102368.31
2022-11-16T11:06:26.111Z,102381.63
2022-11-16T11:07:34.105Z,102375.44
2022-11-16T11:08:35.857Z,102375.28
2022-11-16T11:09:41.762Z,102369.44
2022-11-16T11:10:58.478Z,102369.44
2022-11-16T11:12:36.522Z,102377.13
2022-11-16T11:13:38.256Z,102372.25
2022-11-16T11:14:39.932Z,102368.81
2022-11-16T11:15:43.449Z,102370.78
2022-11-16T11:16:45.197Z,102370.06
2022-11-16T11:17:48.017Z,102370.06
2022-11-16T11:18:51.474Z,102368.31
2022-11-16T11:20:06.391Z,102367.38
2022-11-16T11:21:18.787Z,102356.72
2022-11-16T11:22:20.564Z,102361.59
2022-11-16T11:23:25.096Z,102362.72
2022-11-16T11:24:45.184Z,102362.72
2022-11-16T11:25:52.347Z,102363.31
2022-11-16T11:26:59.345Z,102350.84
2022-11-16T11:28:21.664Z,102356.84
2022-11-16T11:29:30.650Z,102350.38
2022-11-16T11:30:33.990Z,102348.56
2022-11-16T11:31:42.749Z,102344.13
2022-11-16T11:32:44.898Z,102347.44
2022-11-16T11:33:57.100Z,102346.59
2022-11-16T11:35:00.605Z,102344.38
2022-11-16T11:36:06.599Z,102348.16
2022-11-16T11:37:16.083Z,102350.75
2022-11-16T11:38:17.981Z,102347.91
2022-11-16T11:39:19.678Z,102346.34
2022-11-16T11:40:21.601Z,102341.94
2022-11-16T11:41:24.109Z,102334.25
2022-11-16T11:42:26.474Z,102341.22
2022-11-16T11:43:29.804Z,102346.47
2022-11-16T11:44:49.900Z,102350.75
2022-11-16T11:46:11.457Z,102351.31
2022-11-16T11:49:03.540Z,102347.16
2022-11-16T11:50:26.904Z,102343.63
2022-11-16T11:51:40.080Z,102329.09
2022-11-16T11:53:05.094Z,102342.75
2022-11-16T11:54:07.796Z,102334.22
2022-11-16T11:55:16.940Z,102337.06
2022-11-16T11:56:19.474Z,102335.59
2022-11-16T11:57:23.384Z,102335.72
2022-11-16T11:58:37.441Z,102324.38
2022-11-16T11:59:39.187Z,102333.91
2022-11-16T12:01:25.565Z,102335.94
2022-11-16T12:03:02.483Z,102336.53
2022-11-16T12:04:22.751Z,102341.91
2022-11-16T12:05:45.686Z,102339.50
2022-11-16T12:06:56.422Z,102343.16
2022-11-16T12:08:14.790Z,102343.25
2022-11-16T12:09:40.753Z,102346.09
2022-11-16T12:11:21.396Z,102339.50
2022-11-16T12:12:38.277Z,102340.31
2022-11-16T12:13:51.260Z,102352.94
2022-11-16T12:15:18.858Z,102348.91
2022-11-16T12:16:32.501Z,102355.72
2022-11-16T12:18:00.337Z,102349.38
2022-11-16T12:19:01.990Z,102350.50
2022-11-16T12:20:28.154Z,102346.09
2022-11-16T12:21:36.077Z,102353.44
2022-11-16T12:22:53.064Z,102349.75
2022-11-16T12:24:16.039Z,102349.75
2022-11-16T12:25:35.014Z,102345.38
2022-11-16T12:27:03.058Z,102332.41
2022-11-16T12:28:10.594Z,102339.84
2022-11-16T12:29:24.125Z,102343.66
2022-11-16T12:30:26.155Z,102341.22
2022-11-16T12:32:09.246Z,102346.94
2022-11-16T12:33:24.112Z,102344.38
2022-11-16T12:34:49.906Z,102354.00
2022-11-16T12:36:27.321Z,102339.25
2022-11-16T12:37:58.214Z,102335.59
2022-11-16T12:39:33.824Z,102344.72
2022-11-16T12:40:35.481Z,102351.22
2022-11-16T12:41:48.756Z,102346.34
2022-11-16T12:42:53.385Z,102331.44
2022-11-16T12:43:55.998Z,102344.88
2022-11-16T12:45:18.543Z,102355.50
2022-11-16T12:46:41.565Z,102353.53
2022-11-16T12:48:07.390Z,102359.88
2022-11-16T12:49:30.999Z,102360.63
2022-11-16T12:50:59.745Z,102363.78
2022-11-16T12:52:39.101Z,102357.56
2022-11-16T12:54:04.534Z,102364.66
2022-11-16T12:55:40.919Z,102349.03
2022-11-16T12:56:52.576Z,102354.88
2022-11-16T12:58:23.344Z,102361.59
2022-11-16T13:00:01.636Z,102351.31
2022-11-16T13:01:19.169Z,102355.72
2022-11-16T13:02:38.185Z,102360.50
2022-11-16T13:03:47.033Z,102347.56
2022-11-16T13:04:58.523Z,102356.38
2022-11-16T13:06:05.074Z,102364.44
2022-11-16T13:07:28.273Z,102359.06